Howe, Oklahoma
Current Conditions -  °F | °C
As of 7:55 AM on Thursday 23 Oct 2014 (Local Time) from KRKR Reporting Station
Light Rain Light Rain  
Wind Chill: 56°   Ceiling: 11000
Heat Index: 56°   Visibility: 10mi
Dew Point: 52°   Wind: 0mph
Humidity: 87%   Direction: NA
Pressure: 30.16"   Gusts: NA
Location:  34.95°N, 94.64°W
Report Text: KRKR 231255Z AUTO 00000KT 10SM -RA SCT050 SCT080 OVC110 14/11 A3016 RMK AO2 T01350113
Loading
Personal Weather Stations






























Interactive Weather Map
Tropical Storm Tracking
New forecast layout! Learn more

10-Day Weather Forecast

Advertisements
Track Severe Weather on mobile